Time;durP1;ratioP1;P1;durP2;ratioP2;P2;SDS_P1;SDS_P2;PMS_P1;PMS_P2;Temp;Humidity;BMP_temperature;BMP_pressure;BME280_temperature;BME280_humidity;BME280_pressure;Samples;Min_cycle;Max_cycle;Signal;HPM_P1;HPM_P2
2021/03/24 00:01:09;;;;;;;6.50;5.18;;;18.10;52.30;;;;;;4897110;29;20312;-75
2021/03/24 00:03:35;;;;;;;5.43;4.93;;;18.10;51.70;;;;;;4880749;29;20194;-73
2021/03/24 00:06:01;;;;;;;5.25;4.78;;;18.10;51.70;;;;;;4896745;29;20172;-75
2021/03/24 00:08:26;;;;;;;5.57;5.05;;;18.10;51.70;;;;;;4897036;29;20180;-69
2021/03/24 00:10:52;;;;;;;5.65;5.15;;;18.10;51.60;;;;;;4896748;29;20173;-69
2021/03/24 00:13:18;;;;;;;5.82;5.30;;;18.00;51.50;;;;;;4881072;29;20248;-78
2021/03/24 00:15:43;;;;;;;5.03;4.45;;;18.00;51.50;;;;;;4895645;29;20181;-69
2021/03/24 00:18:09;;;;;;;5.15;4.75;;;18.00;51.60;;;;;;4896540;29;20188;-70
2021/03/24 00:20:36;;;;;;;5.93;5.43;;;18.00;51.50;;;;;;4880773;29;20271;-68
2021/03/24 00:23:02;;;;;;;5.75;5.35;;;18.00;51.50;;;;;;4880248;29;20181;-69
2021/03/24 00:25:28;;;;;;;5.70;5.20;;;18.00;51.50;;;;;;4897477;29;20201;-70
2021/03/24 00:27:54;;;;;;;5.78;5.28;;;17.90;51.50;;;;;;4896619;29;20633;-75
2021/03/24 00:30:23;;;;;;;6.32;5.82;;;18.00;51.50;;;;;;4895604;29;20180;-68
2021/03/24 00:32:49;;;;;;;6.03;5.53;;;17.90;51.40;;;;;;4895939;29;20177;-73
2021/03/24 00:35:14;;;;;;;5.93;5.43;;;17.90;51.40;;;;;;4896374;29;20176;-70
2021/03/24 00:37:40;;;;;;;5.53;5.07;;;17.90;51.40;;;;;;4895528;29;20214;-72
2021/03/24 00:40:08;;;;;;;5.85;5.35;;;17.90;51.40;;;;;;4880599;29;20176;-70
2021/03/24 00:42:33;;;;;;;6.07;5.57;;;17.90;51.40;;;;;;4896056;29;20236;-69
2021/03/24 00:44:59;;;;;;;5.75;5.28;;;17.90;51.40;;;;;;4896751;29;20568;-68
2021/03/24 00:47:24;;;;;;;6.15;5.65;;;17.80;51.30;;;;;;4896101;29;20208;-69
2021/03/24 00:49:50;;;;;;;6.57;5.05;;;17.80;51.30;;;;;;4897423;29;20181;-68
2021/03/24 00:52:16;;;;;;;5.93;5.43;;;17.80;51.30;;;;;;4896787;29;20182;-76
2021/03/24 00:54:41;;;;;;;5.80;5.30;;;17.80;51.30;;;;;;4880239;29;20644;-68
2021/03/24 00:57:07;;;;;;;5.60;5.07;;;17.80;51.30;;;;;;4897359;29;20212;-68
2021/03/24 00:59:33;;;;;;;5.57;5.10;;;17.80;51.30;;;;;;4895237;29;20220;-73
2021/03/24 01:01:58;;;;;;;6.00;5.50;;;17.80;51.30;;;;;;4897192;29;20294;-75
2021/03/24 01:04:24;;;;;;;5.38;4.93;;;17.80;51.30;;;;;;4896495;29;20177;-68
2021/03/24 01:06:50;;;;;;;5.50;5.10;;;17.70;51.20;;;;;;4896022;29;20180;-68
2021/03/24 01:09:15;;;;;;;6.18;5.57;;;17.70;51.20;;;;;;4896220;29;20220;-71
2021/03/24 01:11:41;;;;;;;6.53;6.03;;;17.70;51.20;;;;;;4895164;29;20179;-69
2021/03/24 01:14:08;;;;;;;5.65;5.20;;;17.70;51.10;;;;;;4895966;29;20196;-69
2021/03/24 01:16:33;;;;;;;6.45;5.95;;;17.70;51.20;;;;;;4880152;29;20672;-74
2021/03/24 01:18:59;;;;;;;6.15;5.60;;;17.70;51.10;;;;;;4895435;29;20179;-74
2021/03/24 01:21:24;;;;;;;6.55;5.90;;;17.70;51.20;;;;;;4895743;29;20173;-69
2021/03/24 01:23:50;;;;;;;6.28;5.78;;;17.70;51.20;;;;;;4880323;29;20185;-70
2021/03/24 01:26:17;;;;;;;6.30;5.80;;;17.60;51.10;;;;;;4879829;29;20225;-69
2021/03/24 01:28:42;;;;;;;5.82;5.32;;;17.60;51.10;;;;;;4880010;29;20181;-68
2021/03/24 01:31:08;;;;;;;6.25;5.65;;;17.60;51.10;;;;;;4895898;29;20175;-68
2021/03/24 01:33:33;;;;;;;6.28;5.70;;;17.60;51.10;;;;;;4896026;29;20176;-70
2021/03/24 01:35:59;;;;;;;6.13;5.53;;;17.60;51.10;;;;;;4895875;29;20173;-72
2021/03/24 01:38:25;;;;;;;6.43;5.82;;;17.60;51.10;;;;;;4896699;29;20181;-69
2021/03/24 01:40:55;;;;;;;6.60;6.00;;;17.60;51.00;;;;;;4879790;29;20177;-70
2021/03/24 01:43:26;;;;;;;6.15;5.65;;;17.60;51.10;;;;;;4879979;29;20175;-68
2021/03/24 01:46:10;;;;;;;6.70;6.10;;;17.60;51.10;;;;;;4882601;29;20200;-75
2021/03/24 01:48:36;;;;;;;5.93;5.43;;;17.60;51.10;;;;;;4899344;29;20225;-76
2021/03/24 01:51:02;;;;;;;6.40;5.80;;;17.60;51.10;;;;;;4898975;29;20180;-75
2021/03/24 01:53:27;;;;;;;6.53;5.97;;;17.60;51.00;;;;;;4898795;29;20548;-74
2021/03/24 01:55:53;;;;;;;6.68;6.07;;;17.50;51.00;;;;;;4899330;29;20255;-74
2021/03/24 01:58:19;;;;;;;7.03;6.43;;;17.50;51.00;;;;;;4898604;29;20196;-68
2021/03/24 02:00:47;;;;;;;6.18;5.68;;;17.50;51.00;;;;;;4898370;29;20208;-73
2021/03/24 02:03:13;;;;;;;7.18;6.50;;;17.50;51.00;;;;;;4898912;29;20267;-72
2021/03/24 02:05:38;;;;;;;6.25;5.75;;;17.50;50.90;;;;;;4898529;29;20251;-69
2021/03/24 02:08:10;;;;;;;6.40;5.80;;;17.50;50.90;;;;;;4882482;29;20173;-69
2021/03/24 02:10:46;;;;;;;5.82;5.25;;;17.50;51.00;;;;;;4882774;29;20183;-68
2021/03/24 02:13:20;;;;;;;6.25;5.75;;;17.50;51.00;;;;;;4898713;29;20176;-69
2021/03/24 02:15:53;;;;;;;6.55;5.88;;;17.40;50.90;;;;;;4898126;29;20169;-78
2021/03/24 02:18:20;;;;;;;6.05;5.55;;;17.40;50.80;;;;;;4882729;29;20652;-68
2021/03/24 02:20:52;;;;;;;5.97;5.47;;;17.40;50.90;;;;;;4882879;29;20224;-74
2021/03/24 02:23:29;;;;;;;6.03;5.53;;;17.40;50.80;;;;;;4882200;29;20641;-75
2021/03/24 02:26:03;;;;;;;6.10;5.55;;;17.40;50.80;;;;;;4898373;29;20180;-67
2021/03/24 02:28:29;;;;;;;6.50;5.70;;;17.40;51.50;;;;;;4882665;29;20666;-68
2021/03/24 02:30:54;;;;;;;6.20;5.70;;;17.40;50.80;;;;;;4897609;29;20188;-68
2021/03/24 02:33:26;;;;;;;6.72;6.22;;;17.40;50.80;;;;;;4882489;29;20681;-69
2021/03/24 02:35:56;;;;;;;6.45;5.85;;;17.40;50.80;;;;;;4881828;29;20263;-70
2021/03/24 02:38:22;;;;;;;6.40;5.90;;;17.40;50.80;;;;;;4882539;29;20176;-73
2021/03/24 02:40:48;;;;;;;6.65;6.03;;;17.40;50.80;;;;;;4867050;29;20185;-69
2021/03/24 02:43:14;;;;;;;6.80;6.28;;;17.30;50.80;;;;;;4882184;29;20240;-68
2021/03/24 02:45:42;;;;;;;6.60;6.00;;;17.30;50.80;;;;;;4882126;29;20187;-69
2021/03/24 02:48:29;;;;;;;5.65;5.15;;;17.30;50.70;;;;;;4882471;29;20645;-77
2021/03/24 02:50:55;;;;;;;6.35;5.75;;;17.30;50.80;;;;;;4898223;29;20246;-69
2021/03/24 02:53:21;;;;;;;6.35;5.75;;;17.30;50.70;;;;;;4882053;29;20183;-68
2021/03/24 02:55:46;;;;;;;6.60;6.00;;;17.30;50.80;;;;;;4866286;29;20559;-69
2021/03/24 02:58:12;;;;;;;6.38;5.85;;;17.30;50.80;;;;;;4897042;29;20227;-69
2021/03/24 03:00:38;;;;;;;6.53;5.93;;;17.30;50.70;;;;;;4882049;29;20850;-76
2021/03/24 03:03:38;;;;;;;6.80;6.20;;;17.30;50.70;;;;;;4898908;29;20173;-75
2021/03/24 03:06:04;;;;;;;6.45;5.93;;;17.30;50.80;;;;;;4881538;29;20176;-71
2021/03/24 03:08:45;;;;;;;6.45;5.93;;;17.20;50.70;;;;;;4897418;29;20172;-73
2021/03/24 03:11:34;;;;;;;6.57;5.97;;;17.20;50.70;;;;;;4881286;29;20215;-74
2021/03/24 03:14:08;;;;;;;6.20;5.70;;;17.20;50.70;;;;;;4881767;29;20544;-70
2021/03/24 03:16:46;;;;;;;6.30;5.75;;;17.20;50.70;;;;;;4881678;29;20196;-74
2021/03/24 03:19:34;;;;;;;6.10;5.50;;;17.20;50.70;;;;;;4881291;29;20599;-76
2021/03/24 03:22:11;;;;;;;5.85;5.35;;;17.20;50.70;;;;;;4872615;29;20192;-78
2021/03/24 03:24:40;;;;;;;6.60;6.00;;;17.20;50.70;;;;;;4881469;29;20271;-73
2021/03/24 03:27:09;;;;;;;7.13;6.43;;;17.20;50.70;;;;;;4881001;29;20173;-71
2021/03/24 03:29:35;;;;;;;6.78;6.18;;;17.20;50.70;;;;;;4881405;29;20211;-72
2021/03/24 03:32:02;;;;;;;6.47;5.88;;;17.20;50.70;;;;;;4865859;29;20211;-69
2021/03/24 03:34:28;;;;;;;6.80;6.20;;;17.20;50.60;;;;;;4880874;29;20200;-73
2021/03/24 03:36:54;;;;;;;6.45;5.85;;;17.10;50.60;;;;;;4881558;29;20711;-72
2021/03/24 03:39:21;;;;;;;6.25;5.65;;;17.10;50.60;;;;;;4880609;29;20268;-70
2021/03/24 03:41:47;;;;;;;6.85;6.25;;;17.10;50.70;;;;;;4881414;29;20236;-69
2021/03/24 03:44:13;;;;;;;7.00;6.32;;;17.10;50.60;;;;;;4881154;29;20192;-69
2021/03/24 03:46:43;;;;;;;6.90;6.30;;;17.10;50.60;;;;;;4880637;29;20184;-70
2021/03/24 03:49:09;;;;;;;7.65;6.95;;;17.10;50.60;;;;;;4881605;29;20235;-68
2021/03/24 03:51:43;;;;;;;7.15;6.55;;;17.10;50.60;;;;;;4880910;29;20648;-68
2021/03/24 03:54:12;;;;;;;7.63;6.93;;;17.10;50.60;;;;;;4897399;29;20168;-69
2021/03/24 03:56:59;;;;;;;7.53;6.75;;;17.10;50.60;;;;;;4896653;29;20207;-76
2021/03/24 03:59:32;;;;;;;7.28;6.68;;;17.00;50.60;;;;;;4903052;29;20666;-74
2021/03/24 04:02:00;;;;;;;7.55;6.93;;;17.00;50.50;;;;;;4896097;29;20211;-76
2021/03/24 04:04:32;;;;;;;7.60;6.85;;;17.00;50.50;;;;;;4880859;29;20224;-72
2021/03/24 04:07:11;;;;;;;7.90;7.15;;;17.00;50.50;;;;;;4880702;29;20198;-70
2021/03/24 04:09:37;;;;;;;7.65;6.88;;;17.00;50.50;;;;;;4895995;29;20178;-73
2021/03/24 04:12:04;;;;;;;7.40;6.70;;;17.00;50.50;;;;;;4880844;29;20185;-69
2021/03/24 04:14:30;;;;;;;8.52;7.72;;;17.00;50.50;;;;;;4880070;29;20555;-77
2021/03/24 04:16:55;;;;;;;7.32;6.63;;;17.00;50.50;;;;;;4896559;29;20208;-75
2021/03/24 04:19:27;;;;;;;7.60;6.90;;;17.00;50.50;;;;;;4880755;29;20522;-76
2021/03/24 04:21:55;;;;;;;7.22;6.57;;;17.00;50.50;;;;;;4896245;29;20187;-68
2021/03/24 04:24:32;;;;;;;7.72;7.07;;;17.00;50.50;;;;;;4880979;29;20177;-70
2021/03/24 04:26:59;;;;;;;7.65;6.95;;;16.90;50.50;;;;;;4880957;29;20550;-68
2021/03/24 04:29:28;;;;;;;8.43;7.68;;;16.90;50.50;;;;;;4880170;29;20168;-70
2021/03/24 04:31:56;;;;;;;7.70;7.10;;;16.90;50.50;;;;;;4880849;29;20573;-71
2021/03/24 04:34:21;;;;;;;8.43;7.63;;;17.00;50.50;;;;;;4880524;29;20173;-69
2021/03/24 04:37:01;;;;;;;7.35;6.75;;;16.90;50.50;;;;;;4895965;29;20209;-74
2021/03/24 04:39:42;;;;;;;6.82;6.22;;;16.90;50.50;;;;;;4896123;29;20176;-71
2021/03/24 04:42:12;;;;;;;7.47;6.80;;;16.90;50.50;;;;;;4865221;29;20655;-73
2021/03/24 04:44:39;;;;;;;8.07;7.30;;;16.90;50.50;;;;;;4879918;29;20644;-75
2021/03/24 04:47:18;;;;;;;8.77;7.95;;;16.90;50.50;;;;;;4880796;29;20272;-74
2021/03/24 04:50:16;;;;;;;8.75;7.95;;;16.90;50.50;;;;;;4880964;29;20185;-73
2021/03/24 04:52:42;;;;;;;7.65;6.95;;;16.90;50.50;;;;;;4896046;29;20175;-73
2021/03/24 04:55:09;;;;;;;8.18;7.38;;;16.90;50.50;;;;;;4896178;29;20188;-73
2021/03/24 04:57:34;;;;;;;7.38;6.75;;;16.80;50.40;;;;;;4879682;29;20303;-73
2021/03/24 05:00:04;;;;;;;7.47;6.78;;;16.90;50.50;;;;;;4881774;29;20304;-69
2021/03/24 05:02:31;;;;;;;7.32;6.63;;;16.80;50.50;;;;;;4861821;29;20177;-73
2021/03/24 05:05:01;;;;;;;7.80;7.10;;;16.80;50.50;;;;;;4876741;29;20205;-71
2021/03/24 05:07:40;;;;;;;7.30;6.60;;;16.80;50.50;;;;;;4877365;29;20182;-70
2021/03/24 05:10:09;;;;;;;7.47;6.78;;;16.80;50.50;;;;;;4877418;29;20174;-72
2021/03/24 05:12:47;;;;;;;7.90;7.20;;;16.80;50.40;;;;;;4876583;29;20212;-71
2021/03/24 05:15:25;;;;;;;7.53;6.93;;;16.80;50.40;;;;;;4846485;29;20610;-73
2021/03/24 05:17:50;;;;;;;8.02;7.32;;;16.80;50.50;;;;;;4861058;29;20274;-69
2021/03/24 05:20:39;;;;;;;7.03;6.43;;;16.80;50.60;;;;;;4865170;29;20173;-75
2021/03/24 05:23:11;;;;;;;7.18;6.57;;;16.80;50.60;;;;;;4880766;29;20169;-69
2021/03/24 05:25:42;;;;;;;6.95;6.35;;;16.70;50.40;;;;;;4879957;29;20575;-67
2021/03/24 05:28:46;;;;;;;7.28;6.68;;;16.70;50.40;;;;;;4865137;29;20646;-75
2021/03/24 05:31:23;;;;;;;6.88;6.28;;;16.70;50.50;;;;;;4880329;29;20193;-68
2021/03/24 05:33:51;;;;;;;7.10;6.50;;;16.80;50.50;;;;;;4849020;29;20192;-69
2021/03/24 05:36:33;;;;;;;6.80;6.20;;;16.70;50.50;;;;;;4864991;29;20205;-72
2021/03/24 05:39:12;;;;;;;7.10;6.50;;;16.70;50.50;;;;;;4864604;29;20185;-68
2021/03/24 05:41:58;;;;;;;7.47;6.88;;;16.70;50.50;;;;;;4864796;29;20165;-74
2021/03/24 05:44:39;;;;;;;6.15;5.65;;;16.70;50.50;;;;;;4864588;29;20199;-68
2021/03/24 05:47:42;;;;;;;7.00;6.40;;;16.70;50.50;;;;;;4864192;29;20184;-74
2021/03/24 05:50:29;;;;;;;6.47;5.90;;;16.70;50.50;;;;;;4881501;29;20473;-75
2021/03/24 05:53:32;;;;;;;6.47;5.97;;;16.70;50.40;;;;;;4880847;29;20173;-74
2021/03/24 05:56:30;;;;;;;7.38;6.75;;;16.60;50.50;;;;;;4864533;29;20233;-68
2021/03/24 05:59:17;;;;;;;6.25;5.75;;;16.70;50.50;;;;;;4837878;29;21712;-68
2021/03/24 06:01:46;;;;;;;6.30;5.85;;;16.60;50.50;;;;;;4899131;29;20212;-75
2021/03/24 06:04:34;;;;;;;6.53;6.03;;;16.60;50.50;;;;;;4867792;29;20181;-72
2021/03/24 06:07:31;;;;;;;5.88;5.47;;;16.60;50.50;;;;;;4882769;29;20640;-70
2021/03/24 06:10:18;;;;;;;5.30;4.90;;;16.60;50.40;;;;;;4899879;29;20653;-70
2021/03/24 06:13:10;;;;;;;6.40;5.85;;;16.70;50.70;;;;;;4899682;29;20255;-69
2021/03/24 06:15:55;;;;;;;5.18;4.78;;;16.70;50.60;;;;;;4898929;29;20534;-70
2021/03/24 06:19:04;;;;;;;5.13;4.70;;;16.80;50.60;;;;;;4869173;29;20685;-69
2021/03/24 06:21:41;;;;;;;5.20;4.80;;;16.80;50.60;;;;;;4855498;29;20256;-74
2021/03/24 06:24:29;;;;;;;5.35;4.95;;;16.90;50.70;;;;;;4882912;29;20191;-68
2021/03/24 06:26:59;;;;;;;4.38;4.07;;;17.10;50.60;;;;;;4882775;29;20200;-67
2021/03/24 06:29:58;;;;;;;4.70;4.38;;;17.20;50.40;;;;;;4882021;29;20198;-71
2021/03/24 06:32:53;;;;;;;3.92;3.63;;;17.50;50.10;;;;;;4882228;29;20333;-67
2021/03/24 06:35:43;;;;;;;4.88;4.50;;;17.80;49.70;;;;;;4881778;29;20183;-69
2021/03/24 06:38:28;;;;;;;4.07;3.78;;;17.90;49.40;;;;;;4899171;29;20208;-72
2021/03/24 06:41:10;;;;;;;4.13;3.83;;;18.10;49.10;;;;;;4899400;29;20188;-68
2021/03/24 06:44:03;;;;;;;4.32;4.03;;;18.20;48.90;;;;;;4883340;29;20177;-70
2021/03/24 06:46:54;;;;;;;4.28;3.95;;;18.30;48.70;;;;;;4883920;29;20641;-64
2021/03/24 06:49:25;;;;;;;4.53;4.10;;;18.40;48.80;;;;;;4898424;29;20267;-63
2021/03/24 06:52:13;;;;;;;3.83;3.53;;;18.50;49.10;;;;;;4866800;29;20579;-67
2021/03/24 06:54:54;;;;;;;4.35;3.97;;;18.60;48.80;;;;;;4898755;29;20181;-66
2021/03/24 06:57:38;;;;;;;4.72;4.32;;;18.70;49.00;;;;;;4898155;29;20638;-64
2021/03/24 07:00:32;;;;;;;5.18;4.18;;;18.80;49.50;;;;;;4884122;29;20653;-65
2021/03/24 07:03:21;;;;;;;5.30;4.63;;;18.80;49.70;;;;;;4875705;29;20189;-65
2021/03/24 07:06:23;;;;;;;4.50;4.10;;;18.80;50.40;;;;;;4879364;29;20486;-64
2021/03/24 07:08:54;;;;;;;5.50;4.47;;;18.80;49.90;;;;;;4878887;29;20181;-63
2021/03/24 07:11:53;;;;;;;4.40;4.00;;;18.80;50.10;;;;;;4879193;29;20180;-69
2021/03/24 07:14:23;;;;;;;4.70;4.30;;;18.80;50.40;;;;;;4878466;29;20170;-65
2021/03/24 07:17:25;;;;;;;6.63;4.25;;;18.70;50.70;;;;;;4878663;29;20197;-64
2021/03/24 07:20:14;;;;;;;4.72;4.32;;;18.60;50.90;;;;;;4863172;29;20272;-67
2021/03/24 07:23:00;;;;;;;4.68;4.18;;;18.60;51.10;;;;;;4863011;29;20174;-72
2021/03/24 07:25:44;;;;;;;5.05;4.55;;;18.50;51.10;;;;;;4877964;29;20184;-68
2021/03/24 07:28:44;;;;;;;5.80;5.20;;;18.40;51.10;;;;;;4878542;29;20219;-66
2021/03/24 07:31:42;;;;;;;6.05;5.32;;;18.40;51.00;;;;;;4878478;29;20541;-72
2021/03/24 07:34:07;;;;;;;6.40;5.20;;;18.30;50.90;;;;;;4858293;29;20189;-72
2021/03/24 07:36:58;;;;;;;6.22;5.65;;;18.20;51.00;;;;;;4879385;29;20216;-70
2021/03/24 07:39:57;;;;;;;5.88;5.28;;;18.20;50.80;;;;;;4878807;29;20281;-71
2021/03/24 07:42:27;;;;;;;6.45;5.65;;;18.10;51.40;;;;;;4862640;29;20181;-69
2021/03/24 07:45:27;;;;;;;6.85;6.10;;;18.10;50.90;;;;;;4878285;29;20178;-67
2021/03/24 07:48:15;;;;;;;6.65;5.78;;;18.10;51.00;;;;;;4879395;29;20302;-72
2021/03/24 07:50:47;;;;;;;7.95;6.07;;;18.10;50.90;;;;;;4873852;29;20197;-65
2021/03/24 07:53:21;;;;;;;6.78;6.10;;;18.10;50.70;;;;;;4862241;29;20196;-67
2021/03/24 07:56:06;;;;;;;8.48;5.78;;;18.20;50.70;;;;;;4878306;29;20177;-72
2021/03/24 07:58:58;;;;;;;7.90;6.07;;;18.20;50.70;;;;;;4877744;29;20221;-72
2021/03/24 08:01:42;;;;;;;9.02;7.10;;;18.10;50.60;;;;;;4878184;29;20240;-71
2021/03/24 08:04:26;;;;;;;7.28;6.32;;;18.10;50.60;;;;;;4877892;29;20181;-72
2021/03/24 08:07:15;;;;;;;8.45;6.63;;;18.10;50.70;;;;;;4877608;29;20169;-72
2021/03/24 08:10:19;;;;;;;7.13;6.15;;;18.00;50.60;;;;;;4877728;29;20701;-69
2021/03/24 08:13:23;;;;;;;8.05;5.35;;;18.00;50.80;;;;;;4862425;29;20185;-66
2021/03/24 08:16:07;;;;;;;7.45;6.32;;;18.10;50.80;;;;;;4878152;29;20295;-73
2021/03/24 08:18:54;;;;;;;7.07;6.38;;;18.10;50.80;;;;;;4878845;29;20220;-67
2021/03/24 08:21:47;;;;;;;7.20;6.50;;;18.10;50.70;;;;;;4878208;29;20177;-72
2021/03/24 08:24:36;;;;;;;7.18;6.35;;;18.10;50.70;;;;;;4862427;29;20267;-72
2021/03/24 08:27:08;;;;;;;7.40;6.57;;;18.10;50.70;;;;;;4860867;29;20196;-66
2021/03/24 08:29:34;;;;;;;6.85;5.95;;;18.10;50.70;;;;;;4861449;29;20174;-67
2021/03/24 08:32:21;;;;;;;7.47;6.38;;;18.10;50.70;;;;;;4878860;29;20173;-65
2021/03/24 08:35:14;;;;;;;7.53;6.63;;;18.10;50.80;;;;;;4878224;29;20256;-68
2021/03/24 08:37:58;;;;;;;7.25;6.32;;;18.10;50.80;;;;;;4878624;29;20220;-72
2021/03/24 08:41:01;;;;;;;7.43;6.25;;;18.10;50.90;;;;;;4878603;29;20312;-69
2021/03/24 08:43:44;;;;;;;7.18;5.93;;;18.10;50.90;;;;;;4877855;29;20173;-68
2021/03/24 08:46:54;;;;;;;6.72;6.07;;;18.20;50.90;;;;;;4877674;29;20181;-67
2021/03/24 08:49:22;;;;;;;7.32;5.95;;;18.20;50.80;;;;;;4823670;29;20702;-72
2021/03/24 08:51:50;;;;;;;6.97;6.38;;;18.20;50.80;;;;;;4869989;29;20196;-67
2021/03/24 08:54:35;;;;;;;10.13;6.85;;;18.20;50.80;;;;;;4880423;29;20526;-72
2021/03/24 08:57:17;;;;;;;8.27;7.43;;;18.20;50.90;;;;;;4864730;29;20223;-65
2021/03/24 09:00:01;;;;;;;8.48;7.20;;;18.20;50.80;;;;;;4874146;29;20670;-66
2021/03/24 09:02:34;;;;;;;7.45;6.70;;;18.20;50.80;;;;;;4880874;29;20177;-67
2021/03/24 09:05:11;;;;;;;7.80;6.85;;;18.20;50.80;;;;;;4880541;29;20178;-72
2021/03/24 09:07:55;;;;;;;7.13;6.43;;;18.20;50.90;;;;;;4881980;29;20205;-72
2021/03/24 09:10:23;;;;;;;8.27;7.47;;;18.20;50.80;;;;;;4880207;29;20172;-65
2021/03/24 09:12:52;;;;;;;9.25;7.57;;;18.20;50.80;;;;;;4882066;29;20204;-68
2021/03/24 09:15:44;;;;;;;7.78;6.85;;;18.20;50.80;;;;;;4880869;29;20177;-65
2021/03/24 09:18:21;;;;;;;8.63;7.25;;;18.20;50.80;;;;;;4880249;29;20217;-73
2021/03/24 09:20:57;;;;;;;8.00;7.15;;;18.20;50.90;;;;;;4880912;29;20176;-72
2021/03/24 09:23:31;;;;;;;8.35;7.10;;;18.20;51.50;;;;;;4880575;29;20180;-71
2021/03/24 09:26:06;;;;;;;7.82;7.05;;;18.20;50.90;;;;;;4881335;29;20546;-66
2021/03/24 09:28:49;;;;;;;8.38;6.85;;;18.20;50.90;;;;;;4881649;29;20649;-64
2021/03/24 09:31:40;;;;;;;7.90;7.10;;;18.20;50.90;;;;;;4880240;29;20256;-72
2021/03/24 09:34:39;;;;;;;8.13;6.93;;;18.30;50.90;;;;;;4880714;29;20185;-71
2021/03/24 09:37:15;;;;;;;7.60;6.70;;;18.30;50.90;;;;;;4880425;29;20197;-72
2021/03/24 09:39:51;;;;;;;7.32;6.45;;;18.30;50.90;;;;;;4879838;29;20215;-71
2021/03/24 09:42:22;;;;;;;7.97;7.18;;;18.30;50.90;;;;;;4864853;29;20230;-68
2021/03/24 09:44:53;;;;;;;8.18;6.60;;;18.30;50.90;;;;;;4881617;29;20183;-68
2021/03/24 09:48:00;;;;;;;7.22;6.53;;;18.30;50.90;;;;;;4880541;29;20170;-67
2021/03/24 09:50:27;;;;;;;9.07;6.90;;;18.30;50.90;;;;;;4875464;29;20548;-66
2021/03/24 09:53:13;;;;;;;7.82;7.03;;;18.30;50.90;;;;;;4879680;29;20181;-71
2021/03/24 09:55:40;;;;;;;7.63;6.70;;;18.30;50.90;;;;;;4879858;29;20685;-72
2021/03/24 09:58:15;;;;;;;8.45;7.18;;;18.30;50.90;;;;;;4880104;29;20216;-65
2021/03/24 10:01:12;;;;;;;8.30;7.50;;;18.40;51.00;;;;;;4879556;29;20267;-65
2021/03/24 10:03:42;;;;;;;8.63;6.78;;;18.40;51.00;;;;;;4881012;29;20509;-67
2021/03/24 10:06:33;;;;;;;7.95;7.10;;;18.40;51.00;;;;;;4878277;29;20230;-66
2021/03/24 10:09:07;;;;;;;7.28;6.50;;;18.40;51.00;;;;;;4864448;29;20176;-72
2021/03/24 10:11:59;;;;;;;7.05;6.35;;;18.40;51.00;;;;;;4880909;29;20188;-72
2021/03/24 10:14:51;;;;;;;7.75;7.05;;;18.40;51.00;;;;;;4865182;29;20245;-65
2021/03/24 10:17:27;;;;;;;7.45;6.68;;;18.40;51.00;;;;;;4866299;29;20312;-65
2021/03/24 10:20:04;;;;;;;12.35;9.52;;;18.40;51.00;;;;;;4864259;29;20165;-74
2021/03/24 10:22:37;;;;;;;9.88;8.75;;;18.40;50.80;;;;;;4880882;29;20185;-65
2021/03/24 10:25:09;;;;;;;10.80;8.30;;;18.50;50.90;;;;;;4864191;29;20685;-69
2021/03/24 10:27:34;;;;;;;12.60;9.75;;;18.50;50.90;;;;;;4863448;29;20177;-67
2021/03/24 10:30:28;;;;;;;9.93;8.60;;;18.50;50.80;;;;;;4879561;29;20173;-67
2021/03/24 10:33:05;;;;;;;9.93;8.50;;;18.50;50.80;;;;;;4864066;29;20182;-63
2021/03/24 10:35:45;;;;;;;8.38;7.47;;;18.60;50.80;;;;;;4879845;29;20177;-66
2021/03/24 10:38:22;;;;;;;9.10;8.20;;;18.60;50.90;;;;;;4879438;29;20209;-65
2021/03/24 10:41:11;;;;;;;8.43;7.47;;;18.50;50.90;;;;;;4879449;29;20256;-66
2021/03/24 10:44:04;;;;;;;8.88;7.60;;;18.60;50.90;;;;;;4860262;29;20225;-65
2021/03/24 10:46:32;;;;;;;8.63;7.32;;;18.60;51.00;;;;;;4880611;29;20185;-65
2021/03/24 10:48:59;;;;;;;8.52;7.20;;;18.60;50.90;;;;;;4878663;29;20257;-65
2021/03/24 10:51:47;;;;;;;8.57;6.93;;;18.60;51.00;;;;;;4863398;29;20634;-68
2021/03/24 10:54:27;;;;;;;7.97;6.65;;;18.70;51.00;;;;;;4863676;29;20194;-64
2021/03/24 10:57:24;;;;;;;8.73;6.65;;;18.70;51.10;;;;;;4863123;29;20213;-68
2021/03/24 10:59:53;;;;;;;8.82;6.72;;;18.70;51.00;;;;;;4880072;29;20312;-65
2021/03/24 11:02:38;;;;;;;7.10;6.38;;;18.70;51.00;;;;;;4878272;29;20230;-64
2021/03/24 11:05:12;;;;;;;8.77;6.40;;;18.70;51.10;;;;;;4879191;29;20177;-65
2021/03/24 11:07:59;;;;;;;8.70;6.35;;;18.60;51.20;;;;;;4863316;29;20168;-65
2021/03/24 11:10:46;;;;;;;8.15;6.18;;;18.50;51.30;;;;;;4862414;29;20181;-62
2021/03/24 11:13:35;;;;;;;7.97;6.55;;;18.50;51.40;;;;;;4887015;29;20174;-61
2021/03/24 11:16:05;;;;;;;6.80;6.10;;;18.60;51.40;;;;;;4829177;29;20185;-65
2021/03/24 11:18:35;;;;;;;6.68;5.97;;;18.60;51.30;;;;;;4870699;29;20287;-62
2021/03/24 11:21:06;;;;;;;6.90;6.20;;;18.60;51.30;;;;;;4854705;29;20176;-67
2021/03/24 11:23:46;;;;;;;6.75;6.05;;;18.70;51.30;;;;;;4860597;29;20204;-66
2021/03/24 11:26:18;;;;;;;7.32;5.60;;;18.60;51.20;;;;;;4852189;29;20184;-66
2021/03/24 11:28:43;;;;;;;7.60;6.35;;;18.70;51.20;;;;;;4895608;29;20191;-65
2021/03/24 11:31:13;;;;;;;6.85;5.85;;;18.70;51.20;;;;;;4861640;29;20252;-65
2021/03/24 11:33:44;;;;;;;11.63;6.20;;;18.70;51.20;;;;;;4874728;29;20185;-67
2021/03/24 11:36:28;;;;;;;6.25;5.65;;;18.70;51.10;;;;;;4832665;29;20192;-73
2021/03/24 11:39:23;;;;;;;7.40;6.38;;;18.70;51.80;;;;;;4857685;29;20193;-65
2021/03/24 11:41:48;;;;;;;5.82;5.22;;;18.80;51.20;;;;;;4878228;29;20173;-66
2021/03/24 11:44:21;;;;;;;7.45;5.40;;;18.80;51.20;;;;;;4862573;29;20174;-71
2021/03/24 11:46:47;;;;;;;7.13;5.13;;;18.80;51.20;;;;;;4856639;29;20185;-65
2021/03/24 11:49:40;;;;;;;5.72;5.07;;;18.90;51.10;;;;;;4879369;29;20333;-65
2021/03/24 11:52:18;;;;;;;5.22;4.72;;;18.80;51.10;;;;;;4878688;29;20177;-67
2021/03/24 11:54:52;;;;;;;5.85;5.22;;;18.80;51.10;;;;;;4879261;29;20535;-67
2021/03/24 11:57:30;;;;;;;6.20;5.40;;;18.90;51.10;;;;;;4879344;29;20214;-66
2021/03/24 12:00:10;;;;;;;6.90;5.50;;;18.90;51.10;;;;;;4890573;29;20230;-65
2021/03/24 12:03:05;;;;;;;5.75;5.00;;;18.90;51.10;;;;;;4897624;29;20658;-66
2021/03/24 12:05:37;;;;;;;5.28;4.38;;;19.00;51.10;;;;;;4861568;29;20702;-68
2021/03/24 12:08:40;;;;;;;7.35;5.30;;;18.90;51.10;;;;;;4879105;29;20182;-69
2021/03/24 12:11:11;;;;;;;5.45;4.95;;;18.90;51.10;;;;;;4862195;29;20252;-66
2021/03/24 12:13:37;;;;;;;5.32;4.82;;;18.90;51.30;;;;;;4878262;29;20181;-75
2021/03/24 12:16:06;;;;;;;5.78;4.93;;;19.00;51.30;;;;;;4877930;29;20194;-66
2021/03/24 12:18:43;;;;;;;5.30;4.80;;;19.00;51.30;;;;;;4878552;29;20216;-65
2021/03/24 12:21:34;;;;;;;6.35;4.43;;;18.90;51.40;;;;;;4861979;29;20240;-68
2021/03/24 12:24:06;;;;;;;4.55;4.15;;;18.90;52.10;;;;;;4862149;29;20173;-62
2021/03/24 12:26:34;;;;;;;7.20;5.30;;;18.90;51.30;;;;;;4877410;29;20267;-61
2021/03/24 12:29:11;;;;;;;5.38;4.88;;;19.00;51.30;;;;;;4861372;29;20215;-60
2021/03/24 12:31:57;;;;;;;4.70;4.30;;;19.00;51.30;;;;;;4877563;29;20634;-73
2021/03/24 12:34:23;;;;;;;4.80;4.43;;;19.10;51.20;;;;;;4845854;29;20617;-62
2021/03/24 12:36:53;;;;;;;6.20;4.45;;;19.10;51.20;;;;;;4862150;29;20284;-62
2021/03/24 12:39:27;;;;;;;5.63;4.38;;;19.20;51.20;;;;;;4880673;29;20173;-64
2021/03/24 12:41:53;;;;;;;4.57;4.10;;;19.10;51.10;;;;;;4880433;29;20183;-70
2021/03/24 12:44:27;;;;;;;4.70;4.30;;;19.10;51.10;;;;;;4880329;29;20181;-67
2021/03/24 12:47:04;;;;;;;6.20;4.63;;;19.20;51.10;;;;;;4881603;29;20648;-81
2021/03/24 12:49:36;;;;;;;7.07;4.38;;;19.20;51.10;;;;;;4880705;29;20176;-78
2021/03/24 12:52:27;;;;;;;4.68;4.20;;;19.20;51.10;;;;;;4881216;29;20171;-63
2021/03/24 12:54:52;;;;;;;4.97;4.43;;;19.20;51.20;;;;;;4882148;29;20263;-68
2021/03/24 12:57:38;;;;;;;5.00;4.50;;;19.20;51.10;;;;;;4880563;29;20288;-63
2021/03/24 13:00:26;;;;;;;5.15;4.57;;;19.20;51.20;;;;;;4897078;29;20756;-64
2021/03/24 13:03:11;;;;;;;4.43;4.00;;;19.20;51.10;;;;;;4880133;29;20179;-63
2021/03/24 13:05:45;;;;;;;4.85;4.38;;;19.20;51.10;;;;;;4880219;29;20184;-63
2021/03/24 13:08:29;;;;;;;4.90;4.40;;;19.20;51.10;;;;;;4880554;29;20172;-64
2021/03/24 13:11:25;;;;;;;4.78;4.35;;;19.30;51.10;;;;;;4896688;29;20217;-63
2021/03/24 13:14:45;;;;;;;5.15;4.32;;;19.30;51.20;;;;;;4880322;29;20259;-64
2021/03/24 13:17:31;;;;;;;4.75;4.28;;;19.30;51.10;;;;;;4881384;29;20220;-64
2021/03/24 13:20:27;;;;;;;5.03;4.50;;;19.30;51.10;;;;;;4897130;29;20169;-64
2021/03/24 13:23:15;;;;;;;5.30;4.80;;;19.40;51.10;;;;;;4882594;29;20320;-64
2021/03/24 13:25:52;;;;;;;4.50;4.10;;;19.40;51.00;;;;;;4880322;29;20684;-64
2021/03/24 13:28:59;;;;;;;6.53;4.70;;;19.50;50.90;;;;;;4880787;29;20169;-85
2021/03/24 13:31:25;;;;;;;4.38;3.92;;;19.50;51.50;;;;;;4894309;29;20188;-64
2021/03/24 13:34:13;;;;;;;4.47;4.07;;;19.60;50.70;;;;;;4896986;29;20184;-65
2021/03/24 13:36:55;;;;;;;5.53;4.43;;;19.60;50.70;;;;;;4897164;29;20239;-65